AirNav   ProFlight Series 2 Aviation Headset
 
 862 users online  

81PA Derf Haus Heliport
Thompson, Pennsylvania, USA

GOING TO THOMPSON?


FAA INFORMATION EFFECTIVE 18 JUNE 2020

Location

FAA Identifier: 81PA
Lat/Long: 41-51-48.2940N 075-32-26.6570W
41-51.804900N 075-32.444283W
41.8634150,-75.5407381
(estimated)
Elevation: 1800 ft. / 549 m (estimated)
Variation: 13W (1995)
From city: 1 mile E of THOMPSON, PA
Time zone: UTC -4 (UTC -5 during Standard Time)
Zip code: 18465

Heliport Operations

Heliport use: Private use. Permission required prior to landing
Activation date: 09/1997
Control tower: no
ARTCC: NEW YORK CENTER
FSS: WILLIAMSPORT FLIGHT SERVICE STATION
Attendance: UNATNDD
Wind indicator: yes
Segmented circle: no

Nearby radio navigation aids

VOR radial/distance  VOR name  Freq  Var
HNKr231/15.6HANCOCK VOR/DME116.8011W
CFBr134/31.9BINGHAMTON VOR/DME112.2010W
DNYr245/32.2DELANCEY VOR/DME112.1011W
LVZr021/36.1WILKES-BARRE VORTAC111.6010W
RKAr211/38.6ROCKDALE VOR/DME112.6011W

Heliport Services

Runway Information

Helipad H1

Dimensions: 150 x 150 ft. / 46 x 46 m
Surface: turf, in good condition
Traffic pattern: leftleft

Heliport Ownership and Management from official FAA records

Ownership: Privately-owned
Owner: RAYMOND SANDERS
87 HILLSDALE ROAD
EAST BRUNSWICK, NJ 08816
Phone 908-651-0241
Manager: FREDERICK SANDERS
P.O. BOX 211
THOMPSON, PA 18465
Phone 717-727-2841

Heliport Operational Statistics

Aircraft based on the field: 1
Helicopters: 1
    

Additional Remarks

FOR CD CTC NEW YORK ARTCC AT 631-468-1425.

Instrument Procedures

There are no published instrument procedures at 81PA.

Some nearby airports with instrument procedures:

9N3 - Seamans Field Airport (19 nm SW)
N30 - Cherry Ridge Airport (25 nm SE)
N23 - Sidney Municipal Airport (27 nm N)
KCZG - Tri-Cities Airport (28 nm NW)
KBGM - Greater Binghamton Airport/Edwin A Link Field (28 nm NW)
 
Loc | Ops | Rwys | IFR | FBO | Links
Com | Nav | Svcs | Stats | Notes
Area around 81PA (Derf Haus Heliport)
 
Road maps at: MapQuest Bing Google
 
Aerial photo
No photo
 
Sectional chart

 
Airport distance calculator
Flying to Derf Haus Heliport? Find the distance to fly.

From to 81PA

Sunrise and sunset
Times for 14-Jul-2020
 Local
(UTC-4)
 Zulu
(UTC)
Morning civil twilight05:0809:08
Sunrise05:4109:41
Sunset20:3500:35
Evening civil twilight21:0801:08

Current date and time
Zulu (UTC)  15-Jul-2020 02:55:00
Local (UTC-4)  14-Jul-2020 22:55:00
 
METAR
KBGM 
29nm NW 
150153Z AUTO 35006KT 10SM CLR 21/14 A3013 RMK AO2 SLP196 T02060144
KAVP 
33nm S 
150154Z 11004KT 10SM CLR 22/17 A3010 RMK AO2 SLP184 T02170167 PNO $
KMSV 
35nm E 
150156Z AUTO 34003KT 10SM BKN100 20/16 A3013 RMK AO2 SLP196 T02000156
KMPO 
44nm S 
150153Z AUTO 33005KT 10SM CLR 19/15 A3014 RMK AO2 SLP196 T01890150
TAF
KBGM 
29nm NW 
141742Z 1418/1518 33008KT P6SM BKN040 FM142100 00000KT P6SM SCT080 FM151000 00000KT P6SM BKN015 FM151600 00000KT P6SM SCT035
KAVP 
33nm S 
141743Z 1418/1518 32008G16KT P6SM SCT045 FM142300 00000KT P6SM SCT250 FM151200 00000KT P6SM BKN040 FM151600 00000KT P6SM SCT040
NOTAMs
Click for the latest NOTAMs
NOTAMs are issued by the DoD/FAA and will open in a separate window not controlled by AirNav.

 

 
 

Would you like to see your business listed on this page?

 If your business provides an interesting product or service to pilots, flight crews, aircraft, or users of the Derf Haus Heliport, you should consider listing it here.  To start the listing process, click on the button below
 
Add a business
 

Other Pages about Derf Haus Heliport

Update a link
 
Copyright © AirNav, LLC. All rights reserved. Privacy Policy  Contact